Time;durP1;ratioP1;P1;durP2;ratioP2;P2;SDS_P1;SDS_P2;PMS_P1;PMS_P2;Temp;Humidity;BMP_temperature;BMP_pressure;BME280_temperature;BME280_humidity;BME280_pressure;Samples;Min_cycle;Max_cycle;Signal;HPM_P1;HPM_P2
2022/02/19 00:01:02;;;;;;;3.50;0.90;;;;;;;3.96;100.00;94800.75;5135325;27;20023;-66
2022/02/19 00:03:28;;;;;;;2.40;0.80;;;;;;;3.91;100.00;94813.09;5137300;27;20023;-66
2022/02/19 00:05:53;;;;;;;3.72;0.82;;;;;;;3.88;100.00;94822.28;5136007;27;20275;-66
2022/02/19 00:08:18;;;;;;;3.80;0.93;;;;;;;3.84;100.00;94834.38;5135946;27;20019;-66
2022/02/19 00:10:47;;;;;;;4.80;0.60;;;;;;;3.81;100.00;94849.94;5135518;27;20031;-65
2022/02/19 00:13:12;;;;;;;3.53;0.85;;;;;;;3.75;100.00;94856.94;5136757;27;20012;-66
2022/02/19 00:15:37;;;;;;;1.08;0.55;;;;;;;3.76;100.00;94866.50;5135460;27;20469;-66
2022/02/19 00:18:11;;;;;;;4.38;0.90;;;;;;;3.73;100.00;94891.59;5136849;27;20111;-66
2022/02/19 00:20:36;;;;;;;3.05;0.90;;;;;;;3.71;100.00;94898.16;5137030;27;20427;-67
2022/02/19 00:23:05;;;;;;;3.17;0.70;;;;;;;3.69;100.00;94908.16;5136912;27;20023;-66
2022/02/19 00:25:30;;;;;;;5.47;0.70;;;;;;;3.66;100.00;94933.25;5138642;27;20106;-66
2022/02/19 00:27:55;;;;;;;2.08;0.80;;;;;;;3.60;100.00;94938.66;5139086;27;20140;-67
2022/02/19 00:30:21;;;;;;;1.33;0.60;;;;;;;3.58;100.00;94946.00;5137548;27;20023;-67
2022/02/19 00:32:47;;;;;;;2.65;0.93;;;;;;;3.56;100.00;94966.63;5135930;27;20096;-67
2022/02/19 00:35:12;;;;;;;3.70;0.82;;;;;;;3.54;100.00;94969.50;5136096;27;20370;-66
2022/02/19 00:37:38;;;;;;;1.58;0.60;;;;;;;3.52;100.00;94990.09;5136781;27;20168;-67
2022/02/19 00:40:05;;;;;;;2.65;0.70;;;;;;;3.48;100.00;95002.16;5138193;27;20500;-67
2022/02/19 00:42:39;;;;;;;3.17;0.85;;;;;;;3.45;100.00;95007.88;5128385;28;20030;-67
2022/02/19 00:45:08;;;;;;;2.58;0.85;;;;;;;3.45;100.00;95027.22;5115643;28;20051;-67
2022/02/19 00:47:33;;;;;;;2.38;0.60;;;;;;;3.43;100.00;95025.84;5114646;28;20446;-67
2022/02/19 00:50:01;;;;;;;0.50;0.40;;;;;;;3.43;100.00;95036.44;5113641;28;20023;-67
2022/02/19 00:52:26;;;;;;;2.53;0.70;;;;;;;3.43;100.00;95037.25;5134863;27;20054;-66
2022/02/19 00:54:52;;;;;;;1.38;0.47;;;;;;;3.42;100.00;95046.22;5133294;28;20054;-67
2022/02/19 00:57:17;;;;;;;2.60;0.77;;;;;;;3.45;100.00;95048.41;5134773;27;20019;-67
2022/02/19 00:59:42;;;;;;;3.03;0.60;;;;;;;3.45;100.00;95053.72;5133803;28;20034;-67
2022/02/19 01:02:08;;;;;;;2.25;0.68;;;;;;;3.46;100.00;95065.13;5134490;27;20064;-67
2022/02/19 01:04:33;;;;;;;1.60;0.50;;;;;;;3.47;100.00;95053.47;5135205;27;20027;-66
2022/02/19 01:07:02;;;;;;;2.50;0.65;;;;;;;3.48;100.00;95071.81;5134955;27;20019;-67
2022/02/19 01:09:30;;;;;;;3.65;0.65;;;;;;;3.48;100.00;95066.53;5133857;27;20448;-67
2022/02/19 01:12:05;;;;;;;3.15;0.60;;;;;;;3.46;100.00;95075.69;5133940;27;20482;-67
2022/02/19 01:14:30;;;;;;;1.00;0.60;;;;;;;3.47;100.00;95074.66;5134694;27;20405;-67
2022/02/19 01:17:02;;;;;;;3.70;0.52;;;;;;;3.45;100.00;95082.03;5133652;27;20023;-67
2022/02/19 01:19:37;;;;;;;2.08;0.52;;;;;;;3.43;100.00;95089.38;5133612;27;20064;-67
2022/02/19 01:22:08;;;;;;;0.98;0.52;;;;;;;3.38;100.00;95084.75;5133993;27;20033;-67
2022/02/19 01:24:34;;;;;;;2.60;0.70;;;;;;;3.36;100.00;95078.06;5134410;27;20030;-67
2022/02/19 01:27:00;;;;;;;2.20;0.52;;;;;;;3.34;100.00;95090.69;5135899;27;20019;-67
2022/02/19 01:29:25;;;;;;;0.80;0.40;;;;;;;3.33;100.00;95092.53;5135805;27;20027;-67
2022/02/19 01:31:51;;;;;;;2.53;0.82;;;;;;;3.32;100.00;95098.88;5137880;27;20027;-67
2022/02/19 01:34:16;;;;;;;2.28;0.40;;;;;;;3.30;100.00;95118.66;5141136;27;20410;-67
2022/02/19 01:36:45;;;;;;;1.17;0.40;;;;;;;3.20;100.00;95111.22;5141543;27;20049;-67
2022/02/19 01:39:10;;;;;;;2.85;0.90;;;;;;;3.16;100.00;95125.91;5131538;27;20028;-67
2022/02/19 01:41:36;;;;;;;3.28;0.57;;;;;;;3.15;100.00;95129.59;5117093;28;20505;-67
2022/02/19 01:44:10;;;;;;;2.25;0.77;;;;;;;3.11;100.00;95126.56;5118999;28;20050;-67
2022/02/19 01:46:37;;;;;;;3.22;0.68;;;;;;;3.10;100.00;95127.59;5118561;28;20034;-67
2022/02/19 01:49:03;;;;;;;1.85;0.57;;;;;;;3.12;100.00;95132.66;5118516;28;20031;-67
2022/02/19 01:51:33;;;;;;;3.58;0.65;;;;;;;3.11;100.00;95136.31;5113316;28;20031;-67
2022/02/19 01:54:09;;;;;;;1.75;0.50;;;;;;;3.08;100.00;95129.63;5118780;28;20024;-67
2022/02/19 01:56:36;;;;;;;0.93;0.50;;;;;;;3.13;100.00;95135.06;5118508;28;20016;-67
2022/02/19 01:59:07;;;;;;;2.50;0.50;;;;;;;3.11;100.00;95128.38;5118101;28;20019;-67
2022/02/19 02:01:33;;;;;;;2.55;0.80;;;;;;;3.08;100.00;95134.94;5117267;28;20055;-67
2022/02/19 02:03:58;;;;;;;1.33;0.55;;;;;;;3.02;100.00;95141.06;5117084;28;20020;-67
2022/02/19 02:06:25;;;;;;;2.03;0.55;;;;;;;3.01;100.00;95138.66;5118617;28;20108;-67
2022/02/19 02:08:58;;;;;;;3.40;0.75;;;;;;;2.99;100.00;95130.13;5117900;28;20538;-67
2022/02/19 02:11:24;;;;;;;1.98;0.60;;;;;;;2.98;100.00;95129.31;5118066;28;20055;-67
2022/02/19 02:13:55;;;;;;;3.22;0.60;;;;;;;2.99;100.00;95133.56;5118091;28;20026;-67
2022/02/19 02:16:21;;;;;;;0.88;0.52;;;;;;;3.01;100.00;95130.72;5118128;28;20030;-67
2022/02/19 02:18:46;;;;;;;3.60;0.63;;;;;;;3.01;100.00;95122.78;5116909;28;20102;-67
2022/02/19 02:21:12;;;;;;;2.17;0.60;;;;;;;3.02;100.00;95129.69;5118233;28;20028;-67
2022/02/19 02:23:38;;;;;;;1.30;0.63;;;;;;;3.03;100.00;95121.53;5117798;27;20034;-67
2022/02/19 02:26:04;;;;;;;1.52;0.50;;;;;;;3.04;100.00;95124.97;5117487;28;20058;-67
2022/02/19 02:28:30;;;;;;;1.48;0.60;;;;;;;3.04;100.00;95122.34;5117386;28;20355;-67
2022/02/19 02:30:56;;;;;;;3.42;0.50;;;;;;;3.04;100.00;95117.03;5116778;28;20034;-68
2022/02/19 02:33:22;;;;;;;2.25;0.50;;;;;;;3.04;100.00;95122.34;5117095;28;20059;-68
2022/02/19 02:35:49;;;;;;;1.55;0.73;;;;;;;3.07;100.00;95128.03;5116809;28;20085;-67
2022/02/19 02:38:18;;;;;;;2.35;0.50;;;;;;;3.08;100.00;95124.34;5116875;28;20028;-68
2022/02/19 02:40:46;;;;;;;2.30;0.45;;;;;;;3.09;100.00;95117.22;5115894;28;20110;-67
2022/02/19 02:43:11;;;;;;;2.25;0.50;;;;;;;3.08;100.00;95119.06;5115691;28;20044;-67
2022/02/19 02:45:40;;;;;;;2.80;0.70;;;;;;;3.08;100.00;95105.81;5117402;27;20047;-67
2022/02/19 02:48:08;;;;;;;1.15;0.70;;;;;;;3.09;100.00;95104.78;5117269;28;20077;-67
2022/02/19 02:50:36;;;;;;;2.28;0.32;;;;;;;3.09;100.00;95109.28;5120572;27;20035;-67
2022/02/19 02:53:08;;;;;;;1.33;0.52;;;;;;;3.09;100.00;95104.78;5135749;27;20504;-67
2022/02/19 02:55:33;;;;;;;3.97;1.00;;;;;;;3.10;100.00;95106.41;5136932;27;20035;-67
2022/02/19 02:57:59;;;;;;;3.97;0.80;;;;;;;3.15;100.00;95092.53;5135862;27;20558;-68
2022/02/19 03:00:24;;;;;;;2.45;0.60;;;;;;;3.12;100.00;95099.06;5133760;27;20027;-68
2022/02/19 03:02:50;;;;;;;4.05;0.73;;;;;;;3.14;100.00;95104.13;5135079;27;20024;-67
2022/02/19 03:05:16;;;;;;;1.70;0.82;;;;;;;3.14;100.00;95101.47;5134986;27;20019;-67
2022/02/19 03:07:42;;;;;;;1.80;0.60;;;;;;;3.14;100.00;95098.84;5134876;27;20031;-67
2022/02/19 03:10:08;;;;;;;4.78;0.60;;;;;;;3.13;100.00;95095.38;5134959;27;20021;-67
2022/02/19 03:12:34;;;;;;;2.33;0.70;;;;;;;3.14;100.00;95097.00;5133711;27;20073;-67
2022/02/19 03:14:59;;;;;;;3.28;0.65;;;;;;;3.14;100.00;95091.69;5134922;27;20047;-67
2022/02/19 03:17:27;;;;;;;0.88;0.47;;;;;;;3.14;100.00;95104.13;5134703;27;20023;-67
2022/02/19 03:19:53;;;;;;;2.80;0.85;;;;;;;3.14;100.00;95101.47;5134896;27;20019;-67
2022/02/19 03:22:19;;;;;;;3.15;0.63;;;;;;;3.12;100.00;95100.91;5134693;27;20087;-67
2022/02/19 03:24:44;;;;;;;3.75;0.63;;;;;;;3.12;100.00;95095.59;5133092;27;20481;-66
2022/02/19 03:27:10;;;;;;;5.47;0.82;;;;;;;3.12;100.00;95101.69;5133415;27;20080;-67
2022/02/19 03:29:35;;;;;;;1.95;0.90;;;;;;;3.15;100.00;95103.13;5134624;27;20030;-67
2022/02/19 03:32:05;;;;;;;3.53;0.77;;;;;;;3.14;100.00;95120.00;5134493;27;20027;-67
2022/02/19 03:34:31;;;;;;;8.77;0.93;;;;;;;3.16;100.00;95115.34;5134421;27;20111;-66
2022/02/19 03:36:56;;;;;;;4.35;0.82;;;;;;;3.20;100.00;95127.91;5134383;27;20099;-67
2022/02/19 03:39:27;;;;;;;6.45;0.90;;;;;;;3.26;100.00;95138.66;5134429;27;20382;-66
2022/02/19 03:41:52;;;;;;;3.28;1.23;;;;;;;3.24;100.00;95138.84;5129805;27;20020;-66
2022/02/19 03:44:18;;;;;;;9.85;1.10;;;;;;;3.20;100.00;95148.25;5112861;28;20124;-67
2022/02/19 03:46:47;;;;;;;4.32;0.90;;;;;;;3.14;100.00;95151.75;5113679;28;20102;-67
2022/02/19 03:49:12;;;;;;;6.55;1.23;;;;;;;3.05;100.00;95169.78;5112248;28;20024;-67
2022/02/19 03:51:40;;;;;;;4.90;1.33;;;;;;;2.91;100.00;95176.16;5110289;28;20111;-67
2022/02/19 03:54:09;;;;;;;4.90;1.05;;;;;;;2.57;100.00;95185.34;5111796;28;20019;-67
2022/02/19 03:56:34;;;;;;;7.35;1.15;;;;;;;2.40;100.00;95179.75;5113570;28;20106;-67
2022/02/19 03:59:04;;;;;;;4.93;1.35;;;;;;;2.29;100.00;95181.25;5112257;28;20118;-67
2022/02/19 04:01:32;;;;;;;3.55;1.23;;;;;;;2.19;100.00;95182.72;5113266;28;20035;-67
2022/02/19 04:04:03;;;;;;;9.30;1.10;;;;;;;2.10;100.00;95184.78;5112996;28;20054;-67
2022/02/19 04:06:29;;;;;;;7.03;1.20;;;;;;;1.99;100.00;95183.59;5112403;28;20055;-67
2022/02/19 04:08:54;;;;;;;11.52;1.25;;;;;;;1.96;100.00;95191.13;5113362;28;20046;-67
2022/02/19 04:11:26;;;;;;;12.40;1.30;;;;;;;1.88;100.00;95181.59;5113230;28;20103;-67
2022/02/19 04:13:54;;;;;;;4.88;1.00;;;;;;;1.84;100.00;95200.69;5112207;28;20024;-67
2022/02/19 04:16:22;;;;;;;4.90;1.02;;;;;;;1.83;100.00;95201.72;5112995;28;20023;-67
2022/02/19 04:18:47;;;;;;;10.15;1.35;;;;;;;1.84;100.00;95211.25;5113162;28;20035;-67
2022/02/19 04:21:13;;;;;;;7.85;1.27;;;;;;;1.79;100.00;95209.25;5113148;28;20028;-67
2022/02/19 04:23:38;;;;;;;14.00;1.80;;;;;;;1.72;100.00;95205.81;5112991;28;20024;-67
2022/02/19 04:26:06;;;;;;;7.93;1.48;;;;;;;1.57;100.00;95205.25;5111598;28;20028;-67
2022/02/19 04:28:31;;;;;;;8.10;1.48;;;;;;;1.55;100.00;95209.91;5113091;28;20030;-67
2022/02/19 04:30:57;;;;;;;10.88;1.52;;;;;;;1.50;100.00;95207.06;5112968;28;20020;-67
2022/02/19 04:33:22;;;;;;;7.82;1.52;;;;;;;1.49;100.00;95210.72;5112985;28;20421;-67
2022/02/19 04:35:48;;;;;;;12.00;1.45;;;;;;;1.48;100.00;95199.34;5114454;28;20478;-67
2022/02/19 04:38:17;;;;;;;11.65;2.03;;;;;;;1.54;100.00;95208.31;5115540;28;20050;-67
2022/02/19 04:40:43;;;;;;;11.50;1.25;;;;;;;1.59;100.00;95205.84;5114150;28;20035;-67
2022/02/19 04:43:09;;;;;;;6.97;1.45;;;;;;;1.61;100.00;95212.53;5115010;28;20063;-66
2022/02/19 04:45:35;;;;;;;9.07;1.40;;;;;;;1.61;100.00;95215.16;5114803;28;20500;-67
2022/02/19 04:48:01;;;;;;;12.75;1.65;;;;;;;1.68;100.00;95208.06;5114621;28;20035;-67
2022/02/19 04:50:27;;;;;;;4.75;1.20;;;;;;;1.70;100.00;95210.50;5114945;28;20389;-67
2022/02/19 04:52:52;;;;;;;10.73;1.25;;;;;;;1.70;100.00;95213.13;5133387;28;20163;-66
2022/02/19 04:55:18;;;;;;;14.68;1.98;;;;;;;1.72;100.00;95213.72;5134245;27;20015;-67
2022/02/19 04:57:44;;;;;;;11.38;1.98;;;;;;;1.73;100.00;95226.72;5134723;27;20061;-67
2022/02/19 05:00:15;;;;;;;9.27;1.65;;;;;;;1.76;100.00;95228.16;5133580;27;20028;-67
2022/02/19 05:02:41;;;;;;;7.00;1.65;;;;;;;1.77;100.00;95219.22;5134753;27;20019;-67
2022/02/19 05:05:08;;;;;;;8.65;1.85;;;;;;;1.80;100.00;95220.63;5135330;27;20019;-67
2022/02/19 05:07:33;;;;;;;9.02;1.27;;;;;;;1.80;100.00;95223.28;5138030;27;20052;-67
2022/02/19 05:09:59;;;;;;;10.20;1.13;;;;;;;1.79;100.00;95235.66;5139201;27;20027;-67
2022/02/19 05:12:24;;;;;;;7.43;1.25;;;;;;;1.80;100.00;95228.56;5138372;27;20019;-67
2022/02/19 05:14:50;;;;;;;9.40;2.13;;;;;;;1.77;100.00;95224.50;5138764;27;20011;-67
2022/02/19 05:17:16;;;;;;;7.43;1.50;;;;;;;1.73;100.00;95231.19;5138527;27;20040;-67
2022/02/19 05:19:41;;;;;;;8.55;1.30;;;;;;;1.73;100.00;95225.91;5138758;27;20023;-67
2022/02/19 05:22:07;;;;;;;8.20;1.30;;;;;;;1.72;100.00;95219.00;5137196;27;20122;-67
2022/02/19 05:24:32;;;;;;;9.02;1.67;;;;;;;1.71;100.00;95217.38;5138403;27;20053;-67
2022/02/19 05:27:04;;;;;;;7.63;1.55;;;;;;;1.69;100.00;95225.53;5138398;27;20027;-67
2022/02/19 05:29:29;;;;;;;5.82;1.77;;;;;;;1.67;100.00;95230.19;5138855;27;20022;-67
2022/02/19 05:32:01;;;;;;;8.00;1.40;;;;;;;1.67;100.00;95234.69;5138391;27;20499;-67
2022/02/19 05:34:26;;;;;;;5.95;1.60;;;;;;;1.67;100.00;95239.97;5138499;27;20029;-67
2022/02/19 05:36:51;;;;;;;5.55;1.08;;;;;;;1.67;100.00;95235.47;5138365;27;20608;-66
2022/02/19 05:39:17;;;;;;;7.40;1.77;;;;;;;1.64;100.00;95224.53;5138430;27;20027;-67
2022/02/19 05:41:45;;;;;;;3.83;1.02;;;;;;;1.62;100.00;95214.16;5136714;27;20029;-67
2022/02/19 05:44:11;;;;;;;4.78;1.15;;;;;;;1.62;100.00;95208.88;5117871;28;20405;-67
2022/02/19 05:46:36;;;;;;;7.70;1.35;;;;;;;1.62;100.00;95208.06;5117710;28;20102;-67
2022/02/19 05:49:03;;;;;;;4.10;1.25;;;;;;;1.63;100.00;95212.34;5117660;28;20019;-67
2022/02/19 05:51:31;;;;;;;8.38;1.25;;;;;;;1.61;100.00;95212.53;5111891;28;20077;-67
2022/02/19 05:54:00;;;;;;;4.60;0.93;;;;;;;1.63;100.00;95218.44;5117356;28;20047;-67
2022/02/19 05:56:25;;;;;;;3.47;0.98;;;;;;;1.61;100.00;95212.53;5117789;28;20047;-67
2022/02/19 05:58:50;;;;;;;7.53;1.10;;;;;;;1.61;100.00;95214.38;5118090;28;20028;-67
2022/02/19 06:01:19;;;;;;;4.93;0.98;;;;;;;1.61;100.00;95217.81;5117868;28;20053;-67
2022/02/19 06:03:46;;;;;;;3.85;1.02;;;;;;;1.62;100.00;95210.69;5117955;28;20692;-67
2022/02/19 06:06:11;;;;;;;6.82;1.30;;;;;;;1.62;100.00;95206.22;5117851;28;20026;-67
2022/02/19 06:08:37;;;;;;;6.40;1.33;;;;;;;1.61;100.00;95199.34;5119441;28;20019;-67
2022/02/19 06:11:03;;;;;;;4.90;1.08;;;;;;;1.61;100.00;95193.25;5117433;28;20027;-67
2022/02/19 06:13:28;;;;;;;8.35;1.08;;;;;;;1.60;100.00;95195.06;5117771;28;20050;-67
2022/02/19 06:15:58;;;;;;;6.43;1.20;;;;;;;1.62;100.00;95193.03;5118640;28;20039;-67
2022/02/19 06:18:27;;;;;;;10.07;1.55;;;;;;;1.62;100.00;95186.94;5119074;28;20400;-67
2022/02/19 06:20:52;;;;;;;6.35;1.20;;;;;;;1.60;100.00;95184.50;5118494;28;20051;-67
2022/02/19 06:23:18;;;;;;;6.60;1.25;;;;;;;1.57;100.00;95190.22;5119031;28;20016;-67
2022/02/19 06:25:43;;;;;;;8.65;1.65;;;;;;;1.54;100.00;95203.84;5118752;28;20067;-67
2022/02/19 06:28:14;;;;;;;7.25;1.13;;;;;;;1.49;100.00;95200.97;5117469;28;20026;-67
2022/02/19 06:30:40;;;;;;;8.32;1.33;;;;;;;1.45;100.00;95197.94;5118528;28;20024;-67
2022/02/19 06:33:05;;;;;;;9.75;1.63;;;;;;;1.47;100.00;95213.56;5118374;28;20026;-66
2022/02/19 06:35:34;;;;;;;5.45;1.40;;;;;;;1.42;100.00;95219.47;5116759;28;20020;-67
2022/02/19 06:37:59;;;;;;;4.57;1.13;;;;;;;1.37;100.00;95221.09;5103696;28;20047;-67
2022/02/19 06:40:25;;;;;;;9.02;1.45;;;;;;;1.35;100.00;95229.22;5104641;27;20024;-67
2022/02/19 06:42:56;;;;;;;11.48;1.85;;;;;;;1.32;100.00;95231.47;5127270;27;20023;-68
2022/02/19 06:45:21;;;;;;;9.70;1.45;;;;;;;1.32;100.00;95244.66;5118165;28;20035;-67
2022/02/19 06:47:47;;;;;;;11.68;1.60;;;;;;;1.23;100.00;95244.03;5116482;28;20024;-67
2022/02/19 06:50:12;;;;;;;7.95;1.55;;;;;;;1.20;100.00;95239.19;5117881;27;20072;-67
2022/02/19 06:52:41;;;;;;;7.70;1.35;;;;;;;1.14;100.00;95246.06;5122885;27;20019;-67
2022/02/19 06:55:07;;;;;;;11.23;1.30;;;;;;;1.12;100.00;95247.28;5117879;28;20386;-67
2022/02/19 06:57:36;;;;;;;8.32;1.10;;;;;;;1.10;100.00;95258.03;5111323;28;20023;-67
2022/02/19 07:00:06;;;;;;;6.95;1.30;;;;;;;1.05;100.00;95259.66;5115705;27;20019;-67
2022/02/19 07:02:32;;;;;;;7.15;1.45;;;;;;;1.05;100.00;95259.66;5117578;28;20469;-67
2022/02/19 07:04:58;;;;;;;6.13;1.23;;;;;;;1.06;100.00;95256.00;5115934;28;20051;-67
2022/02/19 07:07:23;;;;;;;6.50;1.23;;;;;;;1.07;100.00;95260.25;5118177;28;20486;-67
2022/02/19 07:09:49;;;;;;;5.18;1.15;;;;;;;1.10;100.00;95260.69;5117525;28;20024;-67
2022/02/19 07:12:14;;;;;;;7.00;1.50;;;;;;;1.12;100.00;95260.47;5117418;28;20034;-67
2022/02/19 07:14:40;;;;;;;8.90;1.70;;;;;;;1.14;100.00;95253.97;5116522;28;20015;-67
2022/02/19 07:17:05;;;;;;;11.88;1.65;;;;;;;1.23;100.00;95256.44;5116700;28;20024;-67
2022/02/19 07:19:34;;;;;;;4.63;1.25;;;;;;;1.26;100.00;95256.00;5116890;28;20023;-67
2022/02/19 07:22:06;;;;;;;4.32;1.27;;;;;;;1.31;100.00;95253.59;5115730;28;20498;-67
2022/02/19 07:24:34;;;;;;;10.73;1.45;;;;;;;1.36;100.00;95254.59;5115505;28;20278;-67
2022/02/19 07:27:00;;;;;;;9.57;1.90;;;;;;;1.43;100.00;95249.31;5116509;28;20046;-67
2022/02/19 07:29:25;;;;;;;11.45;1.35;;;;;;;1.50;100.00;95249.31;5114927;28;20048;-67
2022/02/19 07:31:51;;;;;;;12.48;1.60;;;;;;;1.65;100.00;95248.09;5117287;28;20050;-67
2022/02/19 07:34:17;;;;;;;13.18;1.67;;;;;;;1.73;100.00;95236.47;5119157;28;20463;-67
2022/02/19 07:36:42;;;;;;;12.38;1.70;;;;;;;1.83;100.00;95231.59;5113017;28;20490;-67
2022/02/19 07:39:08;;;;;;;9.48;1.75;;;;;;;1.92;100.00;95235.63;5116960;28;20019;-67
2022/02/19 07:41:34;;;;;;;11.65;1.50;;;;;;;2.01;100.00;95233.56;5116892;28;20051;-67
2022/02/19 07:44:00;;;;;;;7.05;1.63;;;;;;;2.04;100.00;95235.78;5114610;28;20043;-67
2022/02/19 07:46:29;;;;;;;9.52;1.48;;;;;;;2.11;100.00;95238.44;5113147;28;20023;-67
2022/02/19 07:48:54;;;;;;;10.82;1.50;;;;;;;2.18;100.00;95239.22;5112915;28;20019;-67
2022/02/19 07:59:38;;;;;;;9.13;1.60;;;;;;;2.44;100.00;95239.09;5110470;28;20512;-65
2022/02/19 08:02:03;;;;;;;8.20;1.20;;;;;;;2.49;100.00;95249.84;5108057;28;20024;-66
2022/02/19 08:04:29;;;;;;;9.50;1.88;;;;;;;2.54;100.00;95254.53;5111224;28;20083;-67
2022/02/19 08:06:54;;;;;;;13.05;1.83;;;;;;;2.60;100.00;95261.59;5111275;28;20026;-67
2022/02/19 08:09:19;;;;;;;9.63;1.63;;;;;;;2.63;100.00;95260.38;5113382;28;20023;-67
2022/02/19 08:11:45;;;;;;;5.80;1.40;;;;;;;2.70;100.00;95272.53;5113549;28;20051;-67
2022/02/19 08:14:10;;;;;;;6.53;1.05;;;;;;;2.79;100.00;95270.47;5114583;28;20015;-66
2022/02/19 08:16:35;;;;;;;6.47;1.52;;;;;;;2.86;100.00;95272.06;5112992;28;20019;-67
2022/02/19 08:19:01;;;;;;;13.57;1.80;;;;;;;2.92;100.00;95273.84;5112093;28;20059;-67
2022/02/19 08:21:27;;;;;;;5.43;1.30;;;;;;;3.04;100.00;95270.50;5113525;28;20034;-67
2022/02/19 08:23:52;;;;;;;5.05;1.42;;;;;;;3.11;100.00;95268.66;5113882;28;20509;-67
2022/02/19 08:26:24;;;;;;;12.07;2.17;;;;;;;3.17;100.00;95265.16;5114325;28;20096;-67
2022/02/19 08:28:53;;;;;;;8.52;1.40;;;;;;;3.28;100.00;95267.13;5114082;28;20106;-67
2022/02/19 08:31:27;;;;;;;6.05;1.45;;;;;;;3.66;100.00;95263.53;5113797;28;20024;-67
2022/02/19 08:33:53;;;;;;;4.95;1.27;;;;;;;3.93;100.00;95266.78;5113432;28;20072;-67
2022/02/19 08:36:21;;;;;;;11.00;2.15;;;;;;;4.32;100.00;95270.84;5114984;28;20020;-67
2022/02/19 08:38:49;;;;;;;9.02;1.90;;;;;;;4.65;100.00;95267.78;5114619;28;20024;-67
2022/02/19 08:41:18;;;;;;;7.50;1.65;;;;;;;4.68;100.00;95275.34;5115926;28;20482;-67
2022/02/19 08:43:43;;;;;;;9.40;1.75;;;;;;;4.25;100.00;95283.38;5117820;28;20052;-67
2022/02/19 08:46:09;;;;;;;13.52;2.13;;;;;;;3.95;100.00;95285.91;5115015;28;20044;-67
2022/02/19 08:48:34;;;;;;;11.90;1.95;;;;;;;3.69;100.00;95292.25;5116009;28;20027;-67
2022/02/19 08:51:02;;;;;;;9.85;1.70;;;;;;;3.53;100.00;95290.16;5121196;28;20107;-67
2022/02/19 08:53:28;;;;;;;10.88;1.50;;;;;;;3.43;100.00;95291.44;5134742;27;20054;-67
2022/02/19 08:55:54;;;;;;;8.52;2.00;;;;;;;3.36;100.00;95300.44;5133482;28;20058;-67
2022/02/19 08:58:19;;;;;;;12.48;1.77;;;;;;;3.25;100.00;95306.41;5135759;27;20039;-67
2022/02/19 09:00:51;;;;;;;8.18;1.75;;;;;;;3.18;100.00;95304.66;5136072;27;20163;-67
2022/02/19 09:03:16;;;;;;;8.55;2.08;;;;;;;3.20;100.00;95304.44;5136364;27;20042;-67
2022/02/19 09:05:42;;;;;;;9.07;1.67;;;;;;;3.21;100.00;95314.00;5137595;27;20482;-67
2022/02/19 09:08:10;;;;;;;7.13;1.58;;;;;;;3.22;100.00;95312.16;5136422;28;20027;-67
2022/02/19 09:10:35;;;;;;;11.15;1.88;;;;;;;3.23;100.00;95319.88;5137887;27;20022;-67
2022/02/19 09:13:01;;;;;;;7.00;1.58;;;;;;;3.25;100.00;95328.41;5136294;27;20565;-66
2022/02/19 09:15:27;;;;;;;10.68;1.80;;;;;;;3.28;100.00;95329.84;5137913;27;20015;-67
2022/02/19 09:17:53;;;;;;;8.25;1.98;;;;;;;3.27;100.00;95322.94;5137941;27;20048;-67
2022/02/19 09:20:21;;;;;;;8.60;1.77;;;;;;;3.30;100.00;95333.88;5137490;27;20082;-67
2022/02/19 09:22:47;;;;;;;8.15;1.88;;;;;;;3.34;100.00;95337.72;5138311;27;20037;-66
2022/02/19 09:25:12;;;;;;;9.63;1.67;;;;;;;3.38;100.00;95323.06;5137186;27;20083;-66
2022/02/19 09:27:39;;;;;;;5.88;1.90;;;;;;;3.33;100.00;95330.00;5138428;27;20030;-66
2022/02/19 09:30:13;;;;;;;10.18;1.83;;;;;;;3.35;100.00;95323.47;5138553;27;20175;-66
2022/02/19 09:32:39;;;;;;;8.85;1.88;;;;;;;3.45;100.00;95334.38;5138473;27;20874;-66
2022/02/19 09:35:05;;;;;;;8.73;2.00;;;;;;;3.47;100.00;95334.16;5138867;27;20023;-66
2022/02/19 09:37:32;;;;;;;7.63;1.75;;;;;;;3.49;100.00;95332.97;5138391;27;20023;-65
2022/02/19 09:40:03;;;;;;;9.18;1.60;;;;;;;3.57;100.00;95337.16;5137194;27;20434;-67
2022/02/19 09:42:39;;;;;;;5.57;1.50;;;;;;;3.68;100.00;95336.47;5130739;27;20030;-66
2022/02/19 09:45:07;;;;;;;10.30;1.80;;;;;;;3.64;100.00;95337.94;5117414;28;20101;-67
2022/02/19 09:47:38;;;;;;;12.90;1.90;;;;;;;3.71;100.00;95341.34;5117429;28;20020;-66
2022/02/19 09:50:07;;;;;;;7.35;1.30;;;;;;;3.69;100.00;95339.91;5115700;28;20019;-66
2022/02/19 09:52:33;;;;;;;8.02;1.23;;;;;;;3.72;100.00;95353.56;5129656;27;20023;-66
2022/02/19 09:55:00;;;;;;;10.27;1.90;;;;;;;3.82;100.00;95350.44;5121315;28;20050;-67
2022/02/19 09:57:28;;;;;;;7.95;1.73;;;;;;;3.82;100.00;95346.97;5121559;28;20028;-67
2022/02/19 09:59:56;;;;;;;12.68;1.55;;;;;;;3.80;100.00;95349.84;5121356;28;20026;-67
2022/02/19 10:02:31;;;;;;;7.50;1.42;;;;;;;3.83;100.00;95346.75;5119526;28;20020;-66
2022/02/19 10:05:09;;;;;;;12.52;1.73;;;;;;;3.88;100.00;95360.16;5119148;28;20023;-67
2022/02/19 10:07:36;;;;;;;6.22;1.30;;;;;;;3.93;100.00;95355.03;5118809;28;20027;-67
2022/02/19 10:10:03;;;;;;;10.55;1.45;;;;;;;3.91;100.00;95353.63;5119378;28;20020;-67
2022/02/19 10:12:45;;;;;;;6.10;1.60;;;;;;;3.88;100.00;95341.59;5118102;28;20023;-67
2022/02/19 10:15:11;;;;;;;10.38;1.42;;;;;;;3.87;100.00;95358.53;5117120;28;20023;-67
2022/02/19 10:17:40;;;;;;;5.97;1.13;;;;;;;3.88;100.00;95348.75;5115674;28;20176;-67
2022/02/19 10:20:07;;;;;;;14.93;1.83;;;;;;;3.87;100.00;95355.88;5115483;28;20031;-67
2022/02/19 10:22:41;;;;;;;6.30;1.25;;;;;;;3.84;100.00;95355.53;5115600;28;20043;-67
2022/02/19 10:25:13;;;;;;;7.80;1.33;;;;;;;3.87;100.00;95347.94;5117144;28;20046;-67
2022/02/19 10:27:47;;;;;;;9.38;1.73;;;;;;;3.92;100.00;95353.41;5117177;28;20027;-67
2022/02/19 10:30:17;;;;;;;5.57;1.60;;;;;;;3.97;100.00;95353.56;5118947;28;20478;-67
2022/02/19 10:32:46;;;;;;;5.38;1.40;;;;;;;4.04;100.00;95356.97;5118858;28;20032;-67
2022/02/19 10:35:11;;;;;;;8.85;1.30;;;;;;;4.11;100.00;95359.56;5118492;28;20023;-66
2022/02/19 10:37:48;;;;;;;8.63;1.63;;;;;;;4.14;100.00;95345.06;5114992;28;20031;-66
2022/02/19 10:40:49;;;;;;;7.13;1.67;;;;;;;4.36;100.00;95343.63;5113543;28;20028;-66
2022/02/19 10:43:23;;;;;;;9.00;1.60;;;;;;;4.63;100.00;95329.03;5114302;28;20051;-66
2022/02/19 10:45:59;;;;;;;6.43;1.27;;;;;;;4.78;100.00;95330.53;5114814;28;20032;-66
2022/02/19 10:48:38;;;;;;;5.28;1.30;;;;;;;4.86;100.00;95323.06;5113551;28;20031;-67
2022/02/19 10:51:09;;;;;;;6.38;1.58;;;;;;;5.01;100.00;95325.34;5121250;27;20387;-67
2022/02/19 10:53:39;;;;;;;11.45;1.45;;;;;;;5.10;100.00;95325.81;5135208;27;20031;-66
2022/02/19 10:56:16;;;;;;;12.18;1.52;;;;;;;5.07;100.00;95316.47;5133819;27;20023;-67
2022/02/19 10:59:02;;;;;;;10.82;2.08;;;;;;;4.99;100.00;95314.09;5133885;27;20512;-66
2022/02/19 11:01:37;;;;;;;11.63;1.70;;;;;;;4.94;100.00;95309.47;5135064;27;20034;-66
2022/02/19 11:04:03;;;;;;;10.30;1.77;;;;;;;4.83;100.00;95298.81;5134869;27;20378;-66
2022/02/19 11:06:29;;;;;;;11.32;1.83;;;;;;;4.85;100.00;95296.75;5134912;27;20034;-66
2022/02/19 11:08:54;;;;;;;7.70;1.60;;;;;;;4.91;100.00;95285.25;5133867;27;20023;-65
2022/02/19 11:11:20;;;;;;;15.68;2.20;;;;;;;4.96;100.00;95274.75;5133475;27;20019;-66
2022/02/19 11:13:49;;;;;;;10.02;1.75;;;;;;;5.10;100.00;95265.59;5134852;27;20019;-66
2022/02/19 11:16:20;;;;;;;8.07;1.40;;;;;;;5.18;100.00;95259.13;5133346;27;20437;-66
2022/02/19 11:18:45;;;;;;;10.70;1.92;;;;;;;5.19;100.00;95242.16;5133367;27;20505;-66
2022/02/19 11:21:15;;;;;;;9.65;1.77;;;;;;;5.31;100.00;95223.59;5134658;27;20027;-66
2022/02/19 11:23:41;;;;;;;7.18;1.38;;;;;;;5.59;100.00;95207.00;5134668;27;20106;-65
2022/02/19 11:26:10;;;;;;;5.28;1.58;;;;;;;6.08;100.00;95187.13;5133740;27;20114;-65
2022/02/19 11:28:37;;;;;;;10.77;2.17;;;;;;;6.62;100.00;95169.03;5134632;27;20030;-64
2022/02/19 11:31:06;;;;;;;15.80;2.10;;;;;;;7.05;100.00;95144.50;5134459;27;20022;-63
2022/02/19 11:33:33;;;;;;;7.03;1.73;;;;;;;7.42;100.00;95125.38;5134440;27;20015;-64
2022/02/19 11:36:11;;;;;;;11.82;1.95;;;;;;;7.88;100.00;95094.84;5134346;27;20048;-65
2022/02/19 11:38:49;;;;;;;4.50;1.45;;;;;;;8.36;100.00;95066.63;5132949;27;20038;-64
2022/02/19 11:41:29;;;;;;;9.65;1.60;;;;;;;8.59;100.00;95038.81;5134305;27;20098;-64